createdAt,value
2022-11-06T00:02:07.501Z,15.23
2022-11-06T00:04:33.830Z,15.26
2022-11-06T00:07:00.165Z,15.29
2022-11-06T00:09:26.483Z,15.31
2022-11-06T00:11:52.839Z,15.31
2022-11-06T00:14:19.175Z,15.30
2022-11-06T00:16:45.521Z,15.29
2022-11-06T00:19:11.845Z,15.28
2022-11-06T00:21:38.170Z,15.26
2022-11-06T00:24:04.493Z,15.22
2022-11-06T00:26:30.828Z,15.19
2022-11-06T00:28:57.169Z,15.18
2022-11-06T00:31:23.547Z,15.16
2022-11-06T00:33:49.903Z,15.15
2022-11-06T00:36:16.254Z,15.13
2022-11-06T00:38:42.575Z,15.10
2022-11-06T00:41:08.939Z,15.08
2022-11-06T00:43:35.289Z,15.08
2022-11-06T00:46:01.614Z,15.13
2022-11-06T00:48:27.935Z,15.13
2022-11-06T00:50:54.344Z,15.10
2022-11-06T00:53:20.676Z,15.10
2022-11-06T00:55:46.982Z,15.10
2022-11-06T00:58:13.622Z,15.12
2022-11-06T01:00:39.654Z,15.10
2022-11-06T01:03:06.180Z,15.08
2022-11-06T01:05:32.396Z,15.06
2022-11-06T01:07:58.713Z,15.03
2022-11-06T01:10:25.036Z,15.01
2022-11-06T01:12:51.381Z,15.00
2022-11-06T01:15:17.728Z,15.01
2022-11-06T01:17:44.072Z,15.00
2022-11-06T01:20:10.467Z,14.99
2022-11-06T01:22:36.779Z,14.95
2022-11-06T01:25:03.123Z,14.95
2022-11-06T01:27:29.500Z,14.95
2022-11-06T01:29:55.825Z,14.96
2022-11-06T01:32:22.138Z,14.96
2022-11-06T01:34:48.475Z,14.95
2022-11-06T01:37:15.223Z,14.93
2022-11-06T01:39:41.184Z,14.92
2022-11-06T01:42:07.522Z,14.90
2022-11-06T01:44:33.845Z,14.88
2022-11-06T01:47:00.180Z,14.84
2022-11-06T01:49:26.545Z,14.83
2022-11-06T01:51:52.885Z,14.82
2022-11-06T01:54:19.230Z,14.82
2022-11-06T01:56:45.542Z,14.81
2022-11-06T01:59:11.867Z,14.79
2022-11-06T02:01:38.358Z,14.77
2022-11-06T02:04:04.626Z,14.75
2022-11-06T02:06:30.972Z,14.74
2022-11-06T02:08:57.353Z,14.75
2022-11-06T02:11:23.661Z,14.76
2022-11-06T02:13:49.987Z,14.74
2022-11-06T02:16:16.306Z,14.73
2022-11-06T02:18:42.632Z,14.73
2022-11-06T02:21:08.960Z,14.73
2022-11-06T02:23:35.311Z,14.73
2022-11-06T02:26:01.649Z,14.72
2022-11-06T02:28:27.993Z,14.71
2022-11-06T02:30:54.328Z,14.70
2022-11-06T02:33:20.660Z,14.68
2022-11-06T02:35:46.979Z,14.69
2022-11-06T02:38:13.586Z,14.69
2022-11-06T02:40:39.667Z,14.68
2022-11-06T02:43:05.985Z,14.69
2022-11-06T02:45:32.357Z,14.70
2022-11-06T02:47:58.721Z,14.69
2022-11-06T02:50:25.043Z,14.68
2022-11-06T02:52:51.394Z,14.68
2022-11-06T02:55:17.712Z,14.66
2022-11-06T02:57:44.060Z,14.67
2022-11-06T03:00:10.420Z,14.65
2022-11-06T03:02:36.819Z,14.63
2022-11-06T03:05:03.116Z,14.60
2022-11-06T03:07:29.467Z,14.58
2022-11-06T03:09:55.791Z,14.57
2022-11-06T03:12:22.123Z,14.55
2022-11-06T03:14:48.488Z,14.54
2022-11-06T03:17:14.829Z,14.53
2022-11-06T03:19:41.167Z,14.52
2022-11-06T03:22:07.522Z,14.51
2022-11-06T03:24:33.857Z,14.49
2022-11-06T03:27:00.197Z,14.48
2022-11-06T03:29:26.533Z,14.44
2022-11-06T03:31:52.859Z,14.41
2022-11-06T03:34:19.202Z,14.41
2022-11-06T03:36:45.575Z,14.41
2022-11-06T03:39:11.867Z,14.40
2022-11-06T03:41:38.193Z,14.39
2022-11-06T03:44:04.533Z,14.36
2022-11-06T03:46:30.863Z,14.36
2022-11-06T03:48:57.188Z,14.38
2022-11-06T03:51:23.530Z,14.35
2022-11-06T03:53:49.913Z,14.34
2022-11-06T03:56:16.265Z,14.26
2022-11-06T03:58:42.623Z,14.22
2022-11-06T04:01:11.511Z,14.18
2022-11-06T04:03:35.299Z,14.14
2022-11-06T04:06:01.654Z,14.13
2022-11-06T04:08:27.980Z,14.13
2022-11-06T04:10:54.343Z,14.12
2022-11-06T04:13:20.681Z,14.12
2022-11-06T04:15:47.009Z,14.13
2022-11-06T04:18:13.652Z,14.09
2022-11-06T04:20:39.728Z,14.04
2022-11-06T04:23:06.067Z,14.02
2022-11-06T04:25:32.400Z,14.04
2022-11-06T04:27:58.770Z,14.05
2022-11-06T04:30:25.088Z,14.10
2022-11-06T04:32:54.602Z,14.12
2022-11-06T04:35:17.761Z,14.08
2022-11-06T04:37:44.102Z,14.02
2022-11-06T04:40:10.421Z,14.02
2022-11-06T04:42:36.803Z,14.02
2022-11-06T04:45:03.123Z,14.04
2022-11-06T04:47:29.452Z,14.07
2022-11-06T04:49:55.806Z,14.05
2022-11-06T04:52:22.127Z,14.04
2022-11-06T04:54:48.456Z,14.01
2022-11-06T04:57:14.774Z,14.04
2022-11-06T04:59:41.121Z,14.01
2022-11-06T05:02:07.514Z,13.99
2022-11-06T05:04:33.833Z,14.02
2022-11-06T05:07:00.161Z,14.03
2022-11-06T05:09:26.509Z,14.02
2022-11-06T05:11:52.821Z,14.02
2022-11-06T05:14:19.155Z,14.00
2022-11-06T05:16:45.496Z,14.01
2022-11-06T05:19:11.854Z,14.04
2022-11-06T05:21:38.169Z,14.04
2022-11-06T05:24:04.517Z,14.06
2022-11-06T05:26:30.930Z,14.06
2022-11-06T05:28:57.323Z,14.03
2022-11-06T05:31:23.672Z,14.02
2022-11-06T05:33:50.029Z,14.05
2022-11-06T05:36:16.358Z,14.07
2022-11-06T05:38:42.686Z,14.09
2022-11-06T05:41:09.030Z,14.10
2022-11-06T05:43:35.371Z,14.10
2022-11-06T05:46:01.705Z,14.14
2022-11-06T05:48:28.043Z,14.18
2022-11-06T05:50:54.424Z,14.19
2022-11-06T05:53:20.742Z,14.22
2022-11-06T05:55:47.089Z,14.23
2022-11-06T05:58:13.715Z,14.25
2022-11-06T06:00:39.793Z,14.27
2022-11-06T06:03:06.181Z,14.31
2022-11-06T06:05:32.434Z,14.35
2022-11-06T06:07:58.779Z,14.37
2022-11-06T06:10:25.102Z,14.39
2022-11-06T06:12:51.425Z,14.40
2022-11-06T06:15:17.794Z,14.43
2022-11-06T06:17:44.128Z,14.45
2022-11-06T06:20:10.488Z,14.48
2022-11-06T06:22:36.828Z,14.51
2022-11-06T06:25:03.255Z,14.52
2022-11-06T06:27:29.526Z,14.51
2022-11-06T06:29:55.850Z,14.49
2022-11-06T06:32:22.198Z,14.49
2022-11-06T06:34:48.542Z,14.50
2022-11-06T06:37:19.974Z,14.54
2022-11-06T06:39:41.232Z,14.57
2022-11-06T06:42:07.574Z,14.63
2022-11-06T06:44:33.920Z,14.65
2022-11-06T06:47:00.280Z,14.66
2022-11-06T06:49:26.646Z,14.65
2022-11-06T06:51:53.002Z,14.66
2022-11-06T06:54:19.384Z,14.66
2022-11-06T06:56:45.740Z,14.68
2022-11-06T06:59:12.104Z,14.70
2022-11-06T07:01:38.536Z,14.73
2022-11-06T07:04:04.778Z,14.77
2022-11-06T07:06:31.100Z,14.82
2022-11-06T07:08:57.428Z,14.84
2022-11-06T07:11:23.781Z,14.87
2022-11-06T07:13:50.145Z,14.88
2022-11-06T07:16:16.465Z,14.90
2022-11-06T07:18:42.788Z,14.91
2022-11-06T07:21:09.127Z,14.92
2022-11-06T07:23:35.498Z,14.95
2022-11-06T07:26:01.844Z,14.98
2022-11-06T07:28:28.180Z,14.99
2022-11-06T07:30:54.522Z,15.03
2022-11-06T07:33:20.905Z,15.09
2022-11-06T07:35:47.232Z,15.13
2022-11-06T07:38:13.772Z,15.17
2022-11-06T07:40:39.898Z,15.20
2022-11-06T07:43:06.287Z,15.21
2022-11-06T07:45:32.609Z,15.22
2022-11-06T07:47:59.359Z,15.24
2022-11-06T07:50:25.349Z,15.25
2022-11-06T07:52:51.671Z,15.27
2022-11-06T07:55:17.989Z,15.29
2022-11-06T07:57:44.320Z,15.28
2022-11-06T08:00:10.662Z,15.28
2022-11-06T08:02:37.056Z,15.27
2022-11-06T08:05:03.321Z,15.29
2022-11-06T08:07:29.670Z,15.29
2022-11-06T08:09:56.047Z,15.26
2022-11-06T08:12:22.371Z,15.53
2022-11-06T08:14:48.709Z,15.74
2022-11-06T08:17:15.093Z,15.87
2022-11-06T08:19:41.405Z,15.99
2022-11-06T08:22:07.873Z,16.01
2022-11-06T08:24:34.202Z,15.94
2022-11-06T08:27:00.527Z,15.84
2022-11-06T08:29:26.854Z,15.80
2022-11-06T08:31:53.211Z,15.76
2022-11-06T08:34:19.575Z,15.76
2022-11-06T08:36:49.445Z,15.79
2022-11-06T08:39:12.250Z,15.80
2022-11-06T08:41:38.609Z,15.79
2022-11-06T08:44:04.929Z,15.77
2022-11-06T08:46:31.257Z,15.73
2022-11-06T08:48:57.593Z,15.60
2022-11-06T08:51:23.960Z,15.51
2022-11-06T08:53:50.427Z,15.54
2022-11-06T08:56:16.689Z,15.55
2022-11-06T08:58:43.035Z,15.51
2022-11-06T09:01:09.388Z,15.46
2022-11-06T09:03:35.690Z,15.44
2022-11-06T09:06:02.062Z,15.43
2022-11-06T09:08:28.392Z,15.42
2022-11-06T09:10:58.620Z,15.44
2022-11-06T09:13:21.061Z,15.47
2022-11-06T09:15:47.406Z,15.47
2022-11-06T09:18:13.746Z,15.43
2022-11-06T09:20:40.087Z,15.40
2022-11-06T09:23:06.419Z,15.39
2022-11-06T09:25:32.755Z,15.38
2022-11-06T09:27:59.841Z,15.30
2022-11-06T09:30:25.519Z,15.30
2022-11-06T09:32:51.781Z,15.29
2022-11-06T09:35:18.153Z,15.29
2022-11-06T09:37:44.523Z,15.29
2022-11-06T09:40:10.825Z,15.26
2022-11-06T09:42:37.146Z,15.26
2022-11-06T09:45:03.487Z,15.25
2022-11-06T09:47:29.828Z,15.24
2022-11-06T09:49:56.178Z,15.22
2022-11-06T09:52:22.618Z,15.24
2022-11-06T09:54:55.880Z,15.22
2022-11-06T09:57:15.362Z,15.21
2022-11-06T09:59:41.709Z,15.23
2022-11-06T10:02:08.120Z,15.25
2022-11-06T10:04:34.387Z,15.25
2022-11-06T10:07:00.736Z,15.25
2022-11-06T10:09:27.080Z,15.26
2022-11-06T10:11:53.424Z,15.27
2022-11-06T10:14:19.765Z,15.28
2022-11-06T10:16:46.166Z,15.26
2022-11-06T10:19:12.497Z,15.27
2022-11-06T10:21:38.848Z,15.26
2022-11-06T10:24:05.177Z,15.26
2022-11-06T10:26:33.880Z,15.25
2022-11-06T10:28:57.985Z,15.28
2022-11-06T10:31:24.227Z,15.30
2022-11-06T10:33:50.554Z,15.31
2022-11-06T10:36:16.924Z,15.32
2022-11-06T10:38:43.253Z,15.36
2022-11-06T10:41:09.578Z,15.34
2022-11-06T10:43:35.908Z,15.36
2022-11-06T10:46:02.253Z,15.35
2022-11-06T10:48:31.115Z,15.33
2022-11-06T10:50:54.965Z,15.34
2022-11-06T10:53:21.329Z,15.34
2022-11-06T10:55:47.691Z,15.35
2022-11-06T10:58:14.375Z,15.36
2022-11-06T11:00:40.421Z,15.37
2022-11-06T11:03:06.758Z,15.36
2022-11-06T11:05:33.086Z,15.35
2022-11-06T11:07:59.424Z,15.35
2022-11-06T11:10:25.736Z,15.28
2022-11-06T11:12:52.065Z,15.28
2022-11-06T11:15:18.425Z,15.26
2022-11-06T11:17:44.784Z,15.24
2022-11-06T11:20:11.159Z,15.23
2022-11-06T11:22:37.593Z,15.18
2022-11-06T11:25:03.859Z,15.20
2022-11-06T11:27:30.185Z,15.24
2022-11-06T11:29:56.547Z,15.18
2022-11-06T11:32:22.891Z,15.17
2022-11-06T11:34:53.903Z,15.19
2022-11-06T11:37:15.557Z,15.17
2022-11-06T11:39:41.922Z,15.16
2022-11-06T11:42:08.251Z,15.18
2022-11-06T11:44:34.627Z,15.21
2022-11-06T11:47:01.935Z,15.24
2022-11-06T11:49:27.292Z,15.25
2022-11-06T11:51:53.664Z,15.21
2022-11-06T11:54:20.029Z,15.14
2022-11-06T11:59:12.714Z,15.02
2022-11-06T12:01:39.095Z,14.99
2022-11-06T12:04:05.364Z,15.02
2022-11-06T12:06:31.710Z,15.03
2022-11-06T12:08:58.024Z,15.06
2022-11-06T12:11:24.354Z,15.09
2022-11-06T12:13:50.707Z,15.12
2022-11-06T12:16:17.040Z,15.14
2022-11-06T12:18:43.363Z,15.17
2022-11-06T12:21:09.705Z,15.22
2022-11-06T12:23:36.018Z,15.26
2022-11-06T12:26:02.398Z,15.27
2022-11-06T12:28:28.736Z,15.26
2022-11-06T12:30:55.075Z,15.26
2022-11-06T12:33:24.647Z,15.26
2022-11-06T12:35:47.739Z,15.25
2022-11-06T12:38:14.544Z,15.25
2022-11-06T12:40:40.597Z,15.25
2022-11-06T12:43:06.904Z,15.25
2022-11-06T12:45:33.260Z,15.26
2022-11-06T12:47:59.580Z,15.25
2022-11-06T12:50:25.933Z,15.25
2022-11-06T12:52:52.289Z,15.26
2022-11-06T12:55:18.616Z,15.25
2022-11-06T12:57:44.940Z,15.26
2022-11-06T13:00:11.404Z,15.25
2022-11-06T13:02:37.813Z,15.26
2022-11-06T13:05:04.081Z,15.26
2022-11-06T13:07:30.425Z,15.26
2022-11-06T13:09:56.805Z,15.26
2022-11-06T13:12:23.147Z,15.26
2022-11-06T13:14:49.490Z,15.26
2022-11-06T13:17:15.830Z,15.27
2022-11-06T13:19:42.189Z,15.25
2022-11-06T13:22:08.525Z,15.25
2022-11-06T13:24:34.850Z,15.23
2022-11-06T13:27:01.168Z,15.24
2022-11-06T13:29:27.499Z,15.24
2022-11-06T13:31:53.880Z,15.25
2022-11-06T13:34:20.227Z,15.25
2022-11-06T13:36:46.577Z,15.26
2022-11-06T13:39:12.952Z,15.26
2022-11-06T13:41:39.276Z,15.26
2022-11-06T13:44:05.634Z,15.25
2022-11-06T13:46:31.975Z,15.25
2022-11-06T13:48:58.319Z,15.23
2022-11-06T13:51:24.667Z,15.23
2022-11-06T13:53:52.947Z,15.21
2022-11-06T13:56:17.351Z,15.20
2022-11-06T13:58:43.673Z,15.20
2022-11-06T14:01:10.082Z,15.19
2022-11-06T14:03:36.405Z,15.21
2022-11-06T14:06:02.732Z,15.22
2022-11-06T14:08:29.070Z,15.21
2022-11-06T14:10:55.419Z,15.20
2022-11-06T14:13:21.801Z,15.19
2022-11-06T14:15:48.136Z,15.18
2022-11-06T14:18:14.639Z,15.17
2022-11-06T14:20:40.836Z,15.18
2022-11-06T14:23:07.157Z,15.18
2022-11-06T14:25:33.489Z,15.18
2022-11-06T14:27:59.838Z,15.18
2022-11-06T14:30:43.774Z,15.17
2022-11-06T14:32:52.523Z,15.16
2022-11-06T14:35:18.868Z,15.16
2022-11-06T14:37:45.219Z,15.14
2022-11-06T14:40:11.555Z,15.15
2022-11-06T14:42:37.885Z,15.16
2022-11-06T14:45:04.218Z,15.15
2022-11-06T14:47:30.589Z,15.13
2022-11-06T14:49:56.923Z,15.12
2022-11-06T14:52:23.244Z,15.10
2022-11-06T14:54:49.592Z,15.08
2022-11-06T14:57:15.966Z,15.06
2022-11-06T14:59:42.301Z,15.06
2022-11-06T15:02:08.719Z,15.06
2022-11-06T15:04:35.060Z,15.06
2022-11-06T15:07:01.461Z,15.05
2022-11-06T15:09:27.783Z,15.04
2022-11-06T15:11:54.110Z,15.04
2022-11-06T15:14:20.421Z,15.04
2022-11-06T15:16:46.783Z,15.04
2022-11-06T15:19:13.128Z,15.03
2022-11-06T15:21:39.612Z,15.02
2022-11-06T15:24:05.931Z,15.01
2022-11-06T15:26:32.296Z,15.01
2022-11-06T15:28:58.692Z,14.99
2022-11-06T15:31:25.017Z,14.99
2022-11-06T15:33:55.551Z,14.99
2022-11-06T15:36:17.734Z,14.98
2022-11-06T15:38:44.072Z,14.98
2022-11-06T15:41:10.401Z,14.98
2022-11-06T15:43:36.747Z,14.97
2022-11-06T15:46:07.100Z,14.96
2022-11-06T15:48:29.436Z,14.98
2022-11-06T15:50:55.764Z,14.98
2022-11-06T15:53:22.105Z,14.97
2022-11-06T15:55:48.466Z,14.96
2022-11-06T15:58:15.117Z,14.94
2022-11-06T16:00:41.150Z,14.92
2022-11-06T16:03:07.494Z,14.91
2022-11-06T16:05:33.826Z,14.90
2022-11-06T16:08:00.149Z,14.88
2022-11-06T16:10:26.471Z,14.88
2022-11-06T16:12:52.822Z,14.89
2022-11-06T16:15:19.179Z,14.89
2022-11-06T16:17:46.363Z,14.89
2022-11-06T16:20:11.895Z,14.88
2022-11-06T16:22:38.302Z,14.87
2022-11-06T16:25:04.660Z,14.86
2022-11-06T16:27:31.011Z,14.86
2022-11-06T16:29:57.327Z,14.84
2022-11-06T16:32:23.674Z,14.84
2022-11-06T16:34:49.990Z,14.83
2022-11-06T16:37:16.357Z,14.83
2022-11-06T16:39:50.481Z,14.82
2022-11-06T16:42:09.032Z,14.81
2022-11-06T16:44:35.368Z,14.80
2022-11-06T16:47:01.726Z,14.80
2022-11-06T16:49:28.068Z,14.79
2022-11-06T16:51:54.416Z,14.77
2022-11-06T16:54:20.741Z,14.78
2022-11-06T16:56:47.179Z,14.77
2022-11-06T16:59:13.487Z,14.77
2022-11-06T17:01:39.938Z,14.77
2022-11-06T17:04:06.239Z,14.76
2022-11-06T17:06:32.608Z,14.77
2022-11-06T17:08:58.942Z,14.76
2022-11-06T17:11:25.292Z,14.75
2022-11-06T17:13:51.657Z,14.74
2022-11-06T17:16:18.038Z,14.74
2022-11-06T17:18:44.368Z,14.74
2022-11-06T17:21:10.696Z,14.72
2022-11-06T17:23:37.019Z,14.71
2022-11-06T17:26:03.364Z,14.71
2022-11-06T17:28:29.785Z,14.70
2022-11-06T17:30:56.181Z,14.70
2022-11-06T17:33:22.507Z,14.70
2022-11-06T17:35:48.832Z,14.70
2022-11-06T17:38:15.234Z,14.68
2022-11-06T17:40:41.559Z,14.66
2022-11-06T17:43:07.892Z,14.65
2022-11-06T17:45:34.420Z,14.63
2022-11-06T17:48:00.835Z,14.64
2022-11-06T17:50:27.200Z,14.71
2022-11-06T17:52:53.528Z,14.69
2022-11-06T17:55:19.904Z,14.61
2022-11-06T17:57:46.247Z,14.61
2022-11-06T18:00:12.598Z,14.61
2022-11-06T18:02:59.601Z,14.53
2022-11-06T18:05:05.283Z,14.48
2022-11-06T18:07:31.626Z,14.46
2022-11-06T18:09:57.972Z,14.47
2022-11-06T18:12:24.292Z,14.46
2022-11-06T18:14:50.661Z,14.44
2022-11-06T18:17:16.986Z,14.43
2022-11-06T18:19:43.575Z,14.43
2022-11-06T18:22:09.952Z,14.43
2022-11-06T18:24:36.271Z,14.44
2022-11-06T18:27:02.607Z,14.44
2022-11-06T18:29:28.948Z,14.42
2022-11-06T18:31:55.288Z,14.41
2022-11-06T18:34:21.613Z,14.40
2022-11-06T18:36:47.963Z,14.38
2022-11-06T18:39:14.322Z,14.39
2022-11-06T18:41:40.638Z,14.39
2022-11-06T18:44:06.985Z,14.38
2022-11-06T18:46:33.325Z,14.40
2022-11-06T18:48:59.668Z,14.39
2022-11-06T18:51:34.467Z,14.38
2022-11-06T18:53:52.375Z,14.37
2022-11-06T18:56:18.792Z,14.36
2022-11-06T18:58:45.044Z,14.40
2022-11-06T19:01:11.421Z,14.45
2022-11-06T19:03:37.758Z,14.45
2022-11-06T19:06:04.089Z,14.39
2022-11-06T19:08:30.412Z,14.33
2022-11-06T19:10:56.765Z,14.28
2022-11-06T19:13:23.083Z,14.25
2022-11-06T19:15:49.427Z,14.24
2022-11-06T19:18:16.199Z,14.24
2022-11-06T19:20:42.130Z,14.25
2022-11-06T19:23:08.470Z,14.25
2022-11-06T19:25:34.824Z,14.25
2022-11-06T19:28:01.148Z,14.24
2022-11-06T19:30:27.474Z,14.23
2022-11-06T19:32:53.857Z,14.22
2022-11-06T19:35:20.172Z,14.20
2022-11-06T19:37:46.535Z,14.19
2022-11-06T19:40:12.897Z,14.15
2022-11-06T19:42:39.216Z,14.15
2022-11-06T19:45:05.533Z,14.14
2022-11-06T19:47:31.861Z,14.12
2022-11-06T19:49:58.181Z,14.07
2022-11-06T19:52:43.237Z,14.02
2022-11-06T19:54:50.859Z,13.98
2022-11-06T19:57:28.620Z,13.95
2022-11-06T19:59:43.505Z,13.93
2022-11-06T20:02:09.935Z,13.91
2022-11-06T20:04:36.208Z,13.89
2022-11-06T20:07:02.571Z,13.87
2022-11-06T20:09:28.896Z,13.87
2022-11-06T20:11:55.238Z,13.85
2022-11-06T20:14:21.596Z,13.82
2022-11-06T20:16:47.945Z,13.79
2022-11-06T20:19:14.326Z,13.75
2022-11-06T20:21:40.677Z,13.74
2022-11-06T20:24:07.017Z,13.73
2022-11-06T20:26:33.366Z,13.72
2022-11-06T20:28:59.685Z,13.72
2022-11-06T20:31:26.010Z,13.70
2022-11-06T20:33:52.414Z,13.68
2022-11-06T20:36:18.761Z,13.69
2022-11-06T20:38:45.103Z,13.68
2022-11-06T20:41:11.439Z,13.66
2022-11-06T20:43:37.776Z,13.66
2022-11-06T20:46:04.116Z,13.64
2022-11-06T20:48:30.450Z,13.63
2022-11-06T20:50:56.794Z,13.64
2022-11-06T20:53:23.109Z,13.66
2022-11-06T20:55:49.485Z,13.66
2022-11-06T20:58:15.830Z,13.67
2022-11-06T21:00:42.188Z,13.67
2022-11-06T21:03:08.554Z,13.67
2022-11-06T21:05:34.854Z,13.66
2022-11-06T21:08:01.230Z,13.64
2022-11-06T21:10:27.557Z,13.62
2022-11-06T21:12:53.903Z,13.62
2022-11-06T21:15:20.396Z,13.61
2022-11-06T21:17:46.723Z,13.62
2022-11-06T21:20:13.059Z,13.61
2022-11-06T21:22:39.419Z,13.61
2022-11-06T21:25:05.768Z,13.60
2022-11-06T21:27:32.078Z,13.62
2022-11-06T21:29:58.476Z,13.66
2022-11-06T21:32:24.793Z,13.66
2022-11-06T21:34:51.123Z,13.67
2022-11-06T21:37:17.531Z,13.68
2022-11-06T21:39:43.937Z,13.68
2022-11-06T21:42:10.196Z,13.69
2022-11-06T21:44:36.552Z,13.70
2022-11-06T21:47:02.866Z,13.70
2022-11-06T21:49:29.240Z,13.69
2022-11-06T21:51:55.552Z,13.66
2022-11-06T21:54:21.873Z,13.64
2022-11-06T21:56:48.213Z,13.64
2022-11-06T21:59:14.542Z,13.64
2022-11-06T22:01:41.059Z,13.63
2022-11-06T22:04:07.239Z,13.67
2022-11-06T22:06:33.552Z,13.69
2022-11-06T22:08:59.877Z,13.69
2022-11-06T22:11:26.222Z,13.70
2022-11-06T22:13:52.568Z,13.72
2022-11-06T22:16:18.903Z,13.73
2022-11-06T22:18:45.228Z,13.73
2022-11-06T22:21:11.569Z,13.72
2022-11-06T22:23:37.915Z,13.72
2022-11-06T22:26:04.313Z,13.72
2022-11-06T22:28:30.789Z,13.72
2022-11-06T22:30:57.130Z,13.71
2022-11-06T22:33:23.464Z,13.70
2022-11-06T22:35:49.799Z,13.70
2022-11-06T22:38:16.150Z,13.67
2022-11-06T22:40:42.471Z,13.67
2022-11-06T22:43:08.798Z,13.66
2022-11-06T22:45:35.124Z,13.64
2022-11-06T22:48:01.448Z,13.61
2022-11-06T22:50:27.769Z,13.58
2022-11-06T22:52:54.116Z,13.56
2022-11-06T22:55:20.502Z,13.53
2022-11-06T22:57:46.949Z,13.52
2022-11-06T23:00:13.260Z,13.49
2022-11-06T23:02:39.680Z,13.45
2022-11-06T23:05:05.950Z,13.42
2022-11-06T23:07:32.274Z,13.39
2022-11-06T23:09:58.612Z,13.36
2022-11-06T23:12:24.934Z,13.35
2022-11-06T23:14:51.293Z,13.33
2022-11-06T23:17:17.634Z,13.34
2022-11-06T23:19:43.951Z,13.34
2022-11-06T23:22:10.334Z,13.35
2022-11-06T23:24:36.658Z,13.35
2022-11-06T23:27:02.982Z,13.32
2022-11-06T23:29:29.301Z,13.29
2022-11-06T23:31:55.643Z,13.26
2022-11-06T23:34:21.955Z,13.24
2022-11-06T23:36:48.338Z,13.22
2022-11-06T23:39:14.672Z,13.21
2022-11-06T23:41:41.013Z,13.18
2022-11-06T23:44:07.352Z,13.15
2022-11-06T23:46:33.673Z,13.14
2022-11-06T23:48:59.993Z,13.10
2022-11-06T23:51:26.352Z,13.08
2022-11-06T23:53:52.685Z,13.05
2022-11-06T23:56:19.010Z,13.02
2022-11-06T23:58:45.366Z,13.02
